sensor_id;sensor_type;location;lat;lon;timestamp;pressure;altitude;pressure_sealevel;temperature;humidity
54736;BME280;40632;51.442;11.936;2022-07-06T00:01:21;100987.25;;;22.61;51.77
54736;BME280;40632;51.442;11.936;2022-07-06T00:03:47;100993.09;;;22.57;51.34
54736;BME280;40632;51.442;11.936;2022-07-06T00:06:12;100992.25;;;22.23;52.10
54736;BME280;40632;51.442;11.936;2022-07-06T00:08:40;100995.25;;;22.20;52.02
54736;BME280;40632;51.442;11.936;2022-07-06T00:11:05;100990.94;;;22.27;52.26
54736;BME280;40632;51.442;11.936;2022-07-06T00:13:31;100999.28;;;22.24;52.21
54736;BME280;40632;51.442;11.936;2022-07-06T00:15:56;100999.81;;;22.36;51.91
54736;BME280;40632;51.442;11.936;2022-07-06T00:18:22;100997.75;;;22.05;51.96
54736;BME280;40632;51.442;11.936;2022-07-06T00:20:47;100994.94;;;22.32;51.59
54736;BME280;40632;51.442;11.936;2022-07-06T00:23:12;100985.16;;;21.81;51.81
54736;BME280;40632;51.442;11.936;2022-07-06T00:25:40;100997.13;;;21.52;52.06
54736;BME280;40632;51.442;11.936;2022-07-06T00:28:06;100996.53;;;21.75;51.91
54736;BME280;40632;51.442;11.936;2022-07-06T00:30:31;100997.41;;;22.08;50.87
54736;BME280;40632;51.442;11.936;2022-07-06T00:32:57;100997.66;;;21.73;50.76
54736;BME280;40632;51.442;11.936;2022-07-06T00:35:22;100997.22;;;21.94;50.65
54736;BME280;40632;51.442;11.936;2022-07-06T00:37:47;100988.91;;;22.13;50.11
54736;BME280;40632;51.442;11.936;2022-07-06T00:40:13;100989.44;;;22.33;49.84
54736;BME280;40632;51.442;11.936;2022-07-06T00:42:41;101000.31;;;22.32;49.26
54736;BME280;40632;51.442;11.936;2022-07-06T00:45:07;100991.84;;;21.77;50.22
54736;BME280;40632;51.442;11.936;2022-07-06T00:47:33;100994.41;;;22.12;50.11
54736;BME280;40632;51.442;11.936;2022-07-06T00:49:58;100988.75;;;22.72;48.99
54736;BME280;40632;51.442;11.936;2022-07-06T00:52:24;100996.81;;;22.39;49.55
54736;BME280;40632;51.442;11.936;2022-07-06T00:54:49;100992.06;;;22.00;50.34
54736;BME280;40632;51.442;11.936;2022-07-06T00:57:15;100995.50;;;21.68;50.91
54736;BME280;40632;51.442;11.936;2022-07-06T00:59:43;100998.06;;;21.43;51.10
54736;BME280;40632;51.442;11.936;2022-07-06T01:02:08;100997.34;;;21.76;51.18
54736;BME280;40632;51.442;11.936;2022-07-06T01:04:34;100991.34;;;21.05;52.35
54736;BME280;40632;51.442;11.936;2022-07-06T01:07:00;100989.81;;;21.28;52.19
54736;BME280;40632;51.442;11.936;2022-07-06T01:09:25;100996.94;;;21.20;52.08
54736;BME280;40632;51.442;11.936;2022-07-06T01:11:51;100994.81;;;21.23;52.56
54736;BME280;40632;51.442;11.936;2022-07-06T01:14:17;100990.50;;;21.30;52.21
54736;BME280;40632;51.442;11.936;2022-07-06T01:16:45;100987.47;;;21.25;52.63
54736;BME280;40632;51.442;11.936;2022-07-06T01:19:10;100987.47;;;20.99;52.93
54736;BME280;40632;51.442;11.936;2022-07-06T01:21:39;100994.75;;;21.15;52.89
54736;BME280;40632;51.442;11.936;2022-07-06T01:24:05;100994.88;;;21.40;52.92
54736;BME280;40632;51.442;11.936;2022-07-06T01:26:30;101001.41;;;20.85;53.79
54736;BME280;40632;51.442;11.936;2022-07-06T01:28:56;101007.63;;;20.93;53.89
54736;BME280;40632;51.442;11.936;2022-07-06T01:31:23;101013.44;;;20.63;55.23
54736;BME280;40632;51.442;11.936;2022-07-06T01:33:48;101009.75;;;20.64;55.19
54736;BME280;40632;51.442;11.936;2022-07-06T01:36:14;101003.09;;;20.86;54.50
54736;BME280;40632;51.442;11.936;2022-07-06T01:38:48;101000.88;;;21.07;54.34
54736;BME280;40632;51.442;11.936;2022-07-06T01:41:14;100997.63;;;20.95;54.62
54736;BME280;40632;51.442;11.936;2022-07-06T01:43:40;100998.25;;;20.63;55.58
54736;BME280;40632;51.442;11.936;2022-07-06T01:46:05;100998.06;;;20.83;55.08
54736;BME280;40632;51.442;11.936;2022-07-06T01:48:31;100997.44;;;20.63;55.86
54736;BME280;40632;51.442;11.936;2022-07-06T01:50:56;101009.50;;;21.01;55.66
54736;BME280;40632;51.442;11.936;2022-07-06T01:53:21;101007.09;;;20.46;56.05
54736;BME280;40632;51.442;11.936;2022-07-06T01:55:49;100989.31;;;21.25;54.87
54736;BME280;40632;51.442;11.936;2022-07-06T01:58:15;100993.88;;;20.80;55.90
54736;BME280;40632;51.442;11.936;2022-07-06T02:00:40;100999.19;;;20.36;56.62
54736;BME280;40632;51.442;11.936;2022-07-06T02:03:05;100992.09;;;20.27;57.37
54736;BME280;40632;51.442;11.936;2022-07-06T02:05:31;100988.59;;;20.62;56.42
54736;BME280;40632;51.442;11.936;2022-07-06T02:07:56;100992.63;;;20.66;56.65
54736;BME280;40632;51.442;11.936;2022-07-06T02:10:21;101005.84;;;20.58;57.13
54736;BME280;40632;51.442;11.936;2022-07-06T02:12:49;101004.13;;;20.49;57.90
54736;BME280;40632;51.442;11.936;2022-07-06T02:15:15;101006.19;;;20.19;57.90
54736;BME280;40632;51.442;11.936;2022-07-06T02:17:40;101004.28;;;20.29;57.97
54736;BME280;40632;51.442;11.936;2022-07-06T02:20:06;101004.88;;;20.77;56.59
54736;BME280;40632;51.442;11.936;2022-07-06T02:22:31;101009.00;;;20.53;57.86
54736;BME280;40632;51.442;11.936;2022-07-06T02:24:56;101018.38;;;20.40;58.11
54736;BME280;40632;51.442;11.936;2022-07-06T02:27:22;101008.00;;;20.54;57.94
54736;BME280;40632;51.442;11.936;2022-07-06T02:29:50;101008.63;;;20.30;58.82
54736;BME280;40632;51.442;11.936;2022-07-06T02:32:15;101014.34;;;20.35;58.69
54736;BME280;40632;51.442;11.936;2022-07-06T02:34:40;101008.31;;;20.15;59.11
54736;BME280;40632;51.442;11.936;2022-07-06T02:37:05;101012.22;;;20.39;59.14
54736;BME280;40632;51.442;11.936;2022-07-06T02:39:31;101016.69;;;20.03;59.85
54736;BME280;40632;51.442;11.936;2022-07-06T02:41:56;101014.94;;;19.93;60.07
54736;BME280;40632;51.442;11.936;2022-07-06T02:44:21;101018.69;;;20.18;59.94
54736;BME280;40632;51.442;11.936;2022-07-06T02:46:49;101023.31;;;19.98;60.20
54736;BME280;40632;51.442;11.936;2022-07-06T02:49:15;101020.75;;;20.07;60.01
54736;BME280;40632;51.442;11.936;2022-07-06T02:51:40;101029.06;;;20.22;59.91
54736;BME280;40632;51.442;11.936;2022-07-06T02:54:05;101020.28;;;20.47;58.95
54736;BME280;40632;51.442;11.936;2022-07-06T02:56:31;101018.00;;;20.52;58.34
54736;BME280;40632;51.442;11.936;2022-07-06T02:58:56;101015.78;;;20.48;59.24
54736;BME280;40632;51.442;11.936;2022-07-06T03:01:21;101021.88;;;20.58;59.05
54736;BME280;40632;51.442;11.936;2022-07-06T03:03:49;101017.72;;;20.19;59.69
54736;BME280;40632;51.442;11.936;2022-07-06T03:06:14;101016.53;;;20.40;60.01
54736;BME280;40632;51.442;11.936;2022-07-06T03:08:40;101027.81;;;19.98;61.19
54736;BME280;40632;51.442;11.936;2022-07-06T03:11:05;101022.75;;;19.67;61.48
54736;BME280;40632;51.442;11.936;2022-07-06T03:13:30;101025.69;;;20.02;61.18
54736;BME280;40632;51.442;11.936;2022-07-06T03:15:56;101029.34;;;20.00;61.10
54736;BME280;40632;51.442;11.936;2022-07-06T03:18:21;101029.63;;;19.97;60.86
54736;BME280;40632;51.442;11.936;2022-07-06T03:20:49;101035.06;;;20.42;60.37
54736;BME280;40632;51.442;11.936;2022-07-06T03:23:14;101033.84;;;20.54;59.43
54736;BME280;40632;51.442;11.936;2022-07-06T03:25:40;101031.56;;;20.41;59.98
54736;BME280;40632;51.442;11.936;2022-07-06T03:28:05;101032.25;;;20.43;60.19
54736;BME280;40632;51.442;11.936;2022-07-06T03:30:30;101033.63;;;20.29;60.37
54736;BME280;40632;51.442;11.936;2022-07-06T03:32:55;101031.34;;;20.34;60.54
54736;BME280;40632;51.442;11.936;2022-07-06T03:35:21;101039.47;;;20.15;60.48
54736;BME280;40632;51.442;11.936;2022-07-06T03:37:49;101044.59;;;20.44;60.54
54736;BME280;40632;51.442;11.936;2022-07-06T03:40:14;101043.38;;;20.21;61.69
54736;BME280;40632;51.442;11.936;2022-07-06T03:42:39;101049.47;;;20.49;60.05
54736;BME280;40632;51.442;11.936;2022-07-06T03:45:05;101040.50;;;20.14;61.85
54736;BME280;40632;51.442;11.936;2022-07-06T03:47:31;101038.81;;;20.49;60.52
54736;BME280;40632;51.442;11.936;2022-07-06T03:49:56;101037.28;;;20.82;59.43
54736;BME280;40632;51.442;11.936;2022-07-06T03:52:21;101045.69;;;20.69;59.55
54736;BME280;40632;51.442;11.936;2022-07-06T03:54:49;101045.66;;;20.33;60.75
54736;BME280;40632;51.442;11.936;2022-07-06T03:57:15;101049.34;;;20.68;59.96
54736;BME280;40632;51.442;11.936;2022-07-06T03:59:40;101050.53;;;20.56;60.05
54736;BME280;40632;51.442;11.936;2022-07-06T04:02:05;101050.06;;;20.97;58.92
54736;BME280;40632;51.442;11.936;2022-07-06T04:04:31;101060.88;;;20.95;59.16
54736;BME280;40632;51.442;11.936;2022-07-06T04:06:58;101063.84;;;20.92;58.32
54736;BME280;40632;51.442;11.936;2022-07-06T04:09:23;101064.94;;;20.81;58.95
54736;BME280;40632;51.442;11.936;2022-07-06T04:11:51;101064.88;;;20.91;58.83
54736;BME280;40632;51.442;11.936;2022-07-06T04:14:16;101072.56;;;20.76;58.52
54736;BME280;40632;51.442;11.936;2022-07-06T04:16:42;101072.16;;;20.89;58.89
54736;BME280;40632;51.442;11.936;2022-07-06T04:19:07;101078.72;;;20.41;59.85
54736;BME280;40632;51.442;11.936;2022-07-06T04:21:32;101077.13;;;20.30;60.26
54736;BME280;40632;51.442;11.936;2022-07-06T04:23:58;101065.66;;;20.65;59.97
54736;BME280;40632;51.442;11.936;2022-07-06T04:26:23;101073.13;;;20.62;59.63
54736;BME280;40632;51.442;11.936;2022-07-06T04:28:51;101071.47;;;20.15;60.92
54736;BME280;40632;51.442;11.936;2022-07-06T04:31:16;101070.91;;;20.75;59.99
54736;BME280;40632;51.442;11.936;2022-07-06T04:33:42;101077.44;;;20.99;59.14
54736;BME280;40632;51.442;11.936;2022-07-06T04:36:07;101082.13;;;21.05;58.93
54736;BME280;40632;51.442;11.936;2022-07-06T04:38:32;101082.31;;;21.03;58.75
54736;BME280;40632;51.442;11.936;2022-07-06T04:40:58;101076.66;;;21.59;57.17
54736;BME280;40632;51.442;11.936;2022-07-06T04:43:23;101084.56;;;21.16;58.01
54736;BME280;40632;51.442;11.936;2022-07-06T04:45:51;101074.50;;;21.36;58.04
54736;BME280;40632;51.442;11.936;2022-07-06T04:48:16;101073.00;;;21.42;57.40
54736;BME280;40632;51.442;11.936;2022-07-06T04:50:42;101074.97;;;21.05;58.01
54736;BME280;40632;51.442;11.936;2022-07-06T04:53:07;101081.25;;;20.78;59.63
54736;BME280;40632;51.442;11.936;2022-07-06T04:55:32;101081.25;;;21.22;59.00
54736;BME280;40632;51.442;11.936;2022-07-06T04:57:58;101089.13;;;20.80;59.05
54736;BME280;40632;51.442;11.936;2022-07-06T05:00:23;101086.00;;;20.84;58.78
54736;BME280;40632;51.442;11.936;2022-07-06T05:02:51;101089.50;;;21.37;57.80
54736;BME280;40632;51.442;11.936;2022-07-06T05:05:16;101076.00;;;22.07;56.76
54736;BME280;40632;51.442;11.936;2022-07-06T05:07:42;101078.63;;;23.08;53.23
54736;BME280;40632;51.442;11.936;2022-07-06T05:10:08;101078.94;;;22.80;52.72
54736;BME280;40632;51.442;11.936;2022-07-06T05:12:34;101077.63;;;23.56;51.59
54736;BME280;40632;51.442;11.936;2022-07-06T05:14:59;101081.06;;;24.44;48.93
54736;BME280;40632;51.442;11.936;2022-07-06T05:17:24;101082.44;;;24.40;48.83
54736;BME280;40632;51.442;11.936;2022-07-06T05:19:52;101080.66;;;24.32;48.64
54736;BME280;40632;51.442;11.936;2022-07-06T05:22:18;101085.56;;;24.21;48.22
54736;BME280;40632;51.442;11.936;2022-07-06T05:24:43;101090.31;;;23.71;48.24
54736;BME280;40632;51.442;11.936;2022-07-06T05:27:08;101089.28;;;23.16;49.74
54736;BME280;40632;51.442;11.936;2022-07-06T05:29:34;101092.97;;;22.49;50.94
54736;BME280;40632;51.442;11.936;2022-07-06T05:31:59;101088.81;;;22.63;50.15
54736;BME280;40632;51.442;11.936;2022-07-06T05:34:25;101091.63;;;22.53;51.59
54736;BME280;40632;51.442;11.936;2022-07-06T05:36:52;101100.34;;;22.63;50.80
54736;BME280;40632;51.442;11.936;2022-07-06T05:39:18;101093.66;;;22.59;51.66
54736;BME280;40632;51.442;11.936;2022-07-06T05:41:43;101105.34;;;22.58;51.57
54736;BME280;40632;51.442;11.936;2022-07-06T05:44:08;101093.81;;;22.41;51.74
54736;BME280;40632;51.442;11.936;2022-07-06T05:46:34;101089.59;;;23.37;50.30
54736;BME280;40632;51.442;11.936;2022-07-06T05:48:59;101095.47;;;22.59;51.46
54736;BME280;40632;51.442;11.936;2022-07-06T05:51:24;101095.00;;;22.80;51.39
54736;BME280;40632;51.442;11.936;2022-07-06T05:53:52;101094.50;;;23.73;49.47
54736;BME280;40632;51.442;11.936;2022-07-06T05:56:18;101102.91;;;23.62;48.43
54736;BME280;40632;51.442;11.936;2022-07-06T05:58:43;101107.88;;;22.84;49.12
54736;BME280;40632;51.442;11.936;2022-07-06T06:01:08;101101.16;;;22.39;50.04
54736;BME280;40632;51.442;11.936;2022-07-06T06:03:34;101113.28;;;22.09;50.73
54736;BME280;40632;51.442;11.936;2022-07-06T06:05:59;101101.03;;;22.74;49.32
54736;BME280;40632;51.442;11.936;2022-07-06T06:08:25;101104.13;;;22.28;50.94
54736;BME280;40632;51.442;11.936;2022-07-06T06:10:52;101108.38;;;22.47;49.81
54736;BME280;40632;51.442;11.936;2022-07-06T06:13:18;101104.38;;;22.59;50.15
54736;BME280;40632;51.442;11.936;2022-07-06T06:15:43;101109.97;;;22.23;50.72
54736;BME280;40632;51.442;11.936;2022-07-06T06:18:09;101113.72;;;22.96;49.60
54736;BME280;40632;51.442;11.936;2022-07-06T06:20:34;101118.44;;;23.11;47.88
54736;BME280;40632;51.442;11.936;2022-07-06T06:22:59;101117.59;;;22.69;49.18
54736;BME280;40632;51.442;11.936;2022-07-06T06:25:27;101118.78;;;23.08;47.86
54736;BME280;40632;51.442;11.936;2022-07-06T06:27:55;101105.03;;;23.27;47.72
54736;BME280;40632;51.442;11.936;2022-07-06T06:30:21;101112.56;;;23.07;47.42
54736;BME280;40632;51.442;11.936;2022-07-06T06:32:46;101117.59;;;22.69;47.77
54736;BME280;40632;51.442;11.936;2022-07-06T06:35:12;101120.75;;;22.73;48.55
54736;BME280;40632;51.442;11.936;2022-07-06T06:37:37;101114.69;;;23.45;46.43
54736;BME280;40632;51.442;11.936;2022-07-06T06:40:02;101124.97;;;23.16;46.73
54736;BME280;40632;51.442;11.936;2022-07-06T06:42:28;101136.66;;;22.58;48.07
54736;BME280;40632;51.442;11.936;2022-07-06T06:44:56;101135.28;;;22.45;48.99
54736;BME280;40632;51.442;11.936;2022-07-06T06:47:21;101133.16;;;22.57;48.20
54736;BME280;40632;51.442;11.936;2022-07-06T06:49:46;101137.50;;;22.67;49.21
54736;BME280;40632;51.442;11.936;2022-07-06T06:52:12;101137.19;;;23.27;47.65
54736;BME280;40632;51.442;11.936;2022-07-06T06:54:37;101152.41;;;23.27;47.83
54736;BME280;40632;51.442;11.936;2022-07-06T06:57:03;101143.75;;;23.89;47.26
54736;BME280;40632;51.442;11.936;2022-07-06T06:59:28;101146.09;;;23.92;46.24
54736;BME280;40632;51.442;11.936;2022-07-06T07:01:56;101141.84;;;24.37;45.32
54736;BME280;40632;51.442;11.936;2022-07-06T07:04:21;101142.59;;;24.54;44.38
54736;BME280;40632;51.442;11.936;2022-07-06T07:06:47;101150.47;;;23.76;43.79
54736;BME280;40632;51.442;11.936;2022-07-06T07:09:12;101149.75;;;23.02;44.51
54736;BME280;40632;51.442;11.936;2022-07-06T07:11:37;101155.09;;;23.35;44.41
54736;BME280;40632;51.442;11.936;2022-07-06T07:14:04;101165.13;;;23.00;45.30
54736;BME280;40632;51.442;11.936;2022-07-06T07:16:30;101156.78;;;22.95;45.27
54736;BME280;40632;51.442;11.936;2022-07-06T07:18:58;101160.41;;;23.59;44.28
54736;BME280;40632;51.442;11.936;2022-07-06T07:21:23;101157.75;;;24.39;43.21
54736;BME280;40632;51.442;11.936;2022-07-06T07:23:48;101147.59;;;24.26;43.73
54736;BME280;40632;51.442;11.936;2022-07-06T07:26:14;101162.69;;;23.87;44.31
54736;BME280;40632;51.442;11.936;2022-07-06T07:28:39;101153.59;;;24.36;43.02
54736;BME280;40632;51.442;11.936;2022-07-06T07:31:04;101150.19;;;24.42;43.45
54736;BME280;40632;51.442;11.936;2022-07-06T07:33:30;101149.09;;;25.06;42.22
54736;BME280;40632;51.442;11.936;2022-07-06T07:35:58;101144.38;;;25.08;42.18
54736;BME280;40632;51.442;11.936;2022-07-06T07:38:23;101146.47;;;24.74;42.44
54736;BME280;40632;51.442;11.936;2022-07-06T07:40:48;101134.03;;;26.09;40.38
54736;BME280;40632;51.442;11.936;2022-07-06T07:43:14;101145.00;;;24.41;42.86
54736;BME280;40632;51.442;11.936;2022-07-06T07:45:39;101147.59;;;23.78;43.41
54736;BME280;40632;51.442;11.936;2022-07-06T07:48:05;101146.91;;;24.01;42.40
54736;BME280;40632;51.442;11.936;2022-07-06T07:50:30;101134.00;;;25.58;40.63
54736;BME280;40632;51.442;11.936;2022-07-06T07:52:58;101146.44;;;25.21;41.10
54736;BME280;40632;51.442;11.936;2022-07-06T07:55:24;101151.88;;;25.12;39.48
54736;BME280;40632;51.442;11.936;2022-07-06T07:57:49;101151.84;;;24.98;39.66
54736;BME280;40632;51.442;11.936;2022-07-06T08:00:15;101142.31;;;25.93;38.49
54736;BME280;40632;51.442;11.936;2022-07-06T08:02:40;101139.44;;;25.64;38.71
54736;BME280;40632;51.442;11.936;2022-07-06T08:05:06;101141.16;;;26.32;37.32
54736;BME280;40632;51.442;11.936;2022-07-06T08:07:31;101147.34;;;26.32;37.38
54736;BME280;40632;51.442;11.936;2022-07-06T08:09:59;101147.69;;;26.22;38.25
54736;BME280;40632;51.442;11.936;2022-07-06T08:12:25;101150.44;;;26.29;38.24
54736;BME280;40632;51.442;11.936;2022-07-06T08:14:50;101131.97;;;26.26;37.73
54736;BME280;40632;51.442;11.936;2022-07-06T08:17:15;101131.03;;;26.55;37.35
54736;BME280;40632;51.442;11.936;2022-07-06T08:19:40;101140.66;;;26.06;38.91
54736;BME280;40632;51.442;11.936;2022-07-06T08:22:06;101146.88;;;25.62;39.58
54736;BME280;40632;51.442;11.936;2022-07-06T08:24:31;101144.06;;;25.26;39.39
54736;BME280;40632;51.442;11.936;2022-07-06T08:26:59;101145.16;;;24.93;39.70
54736;BME280;40632;51.442;11.936;2022-07-06T08:29:25;101158.84;;;25.22;39.36
54736;BME280;40632;51.442;11.936;2022-07-06T08:31:50;101138.25;;;25.97;38.63
54736;BME280;40632;51.442;11.936;2022-07-06T08:34:15;101136.00;;;27.51;36.38
54736;BME280;40632;51.442;11.936;2022-07-06T08:36:41;101141.28;;;27.31;37.12
54736;BME280;40632;51.442;11.936;2022-07-06T08:39:06;101148.25;;;26.39;37.92
54736;BME280;40632;51.442;11.936;2022-07-06T08:41:31;101142.03;;;25.73;38.24
54736;BME280;40632;51.442;11.936;2022-07-06T08:43:59;101143.53;;;27.28;36.05
54736;BME280;40632;51.442;11.936;2022-07-06T08:46:25;101142.34;;;27.37;35.93
54736;BME280;40632;51.442;11.936;2022-07-06T08:48:53;101138.59;;;26.45;36.45
54736;BME280;40632;51.442;11.936;2022-07-06T08:51:19;101132.53;;;26.79;36.61
54736;BME280;40632;51.442;11.936;2022-07-06T08:53:45;101129.25;;;26.84;36.13
54736;BME280;40632;51.442;11.936;2022-07-06T08:56:10;101135.72;;;26.10;37.39
54736;BME280;40632;51.442;11.936;2022-07-06T08:58:36;101142.09;;;24.97;38.35
54736;BME280;40632;51.442;11.936;2022-07-06T09:01:04;101139.91;;;25.68;37.57
54736;BME280;40632;51.442;11.936;2022-07-06T09:03:29;101138.53;;;26.38;36.48
54736;BME280;40632;51.442;11.936;2022-07-06T09:05:56;101148.25;;;25.43;39.10
54736;BME280;40632;51.442;11.936;2022-07-06T09:08:23;101149.13;;;25.21;39.02
54736;BME280;40632;51.442;11.936;2022-07-06T09:10:50;101149.44;;;25.26;39.70
54736;BME280;40632;51.442;11.936;2022-07-06T09:13:15;101151.66;;;25.52;39.16
54736;BME280;40632;51.442;11.936;2022-07-06T09:15:41;101160.78;;;24.35;40.26
54736;BME280;40632;51.442;11.936;2022-07-06T09:18:09;101146.03;;;25.62;38.41
54736;BME280;40632;51.442;11.936;2022-07-06T09:20:34;101146.50;;;25.12;39.47
54736;BME280;40632;51.442;11.936;2022-07-06T09:23:00;101152.53;;;25.53;39.37
54736;BME280;40632;51.442;11.936;2022-07-06T09:25:26;101139.16;;;26.04;38.33
54736;BME280;40632;51.442;11.936;2022-07-06T09:27:52;101152.50;;;25.15;38.67
54736;BME280;40632;51.442;11.936;2022-07-06T09:30:18;101149.28;;;25.72;37.95
54736;BME280;40632;51.442;11.936;2022-07-06T09:32:44;101139.72;;;24.79;39.36
54736;BME280;40632;51.442;11.936;2022-07-06T09:35:19;101137.59;;;25.80;38.31
54736;BME280;40632;51.442;11.936;2022-07-06T09:37:44;101137.41;;;25.81;37.84
54736;BME280;40632;51.442;11.936;2022-07-06T09:40:15;101139.25;;;25.51;38.44
54736;BME280;40632;51.442;11.936;2022-07-06T09:42:40;101134.31;;;26.51;37.03
54736;BME280;40632;51.442;11.936;2022-07-06T09:45:06;101138.34;;;25.59;38.95
54736;BME280;40632;51.442;11.936;2022-07-06T09:47:33;101137.22;;;25.38;38.65
54736;BME280;40632;51.442;11.936;2022-07-06T09:49:59;101134.53;;;25.68;37.89
54736;BME280;40632;51.442;11.936;2022-07-06T09:52:27;101120.31;;;27.05;36.40
54736;BME280;40632;51.442;11.936;2022-07-06T09:54:52;101124.59;;;26.71;35.98
54736;BME280;40632;51.442;11.936;2022-07-06T09:57:17;101134.31;;;26.51;36.63
54736;BME280;40632;51.442;11.936;2022-07-06T09:59:49;101118.00;;;27.02;36.28
54736;BME280;40632;51.442;11.936;2022-07-06T10:02:15;101136.66;;;25.43;37.54
54736;BME280;40632;51.442;11.936;2022-07-06T10:04:40;101132.66;;;25.98;37.63
54736;BME280;40632;51.442;11.936;2022-07-06T10:07:07;101138.16;;;25.45;38.07
54736;BME280;40632;51.442;11.936;2022-07-06T10:09:36;101125.09;;;25.72;37.28
54736;BME280;40632;51.442;11.936;2022-07-06T10:12:03;101121.63;;;26.66;36.74
54736;BME280;40632;51.442;11.936;2022-07-06T10:14:29;101116.53;;;25.98;35.92
54736;BME280;40632;51.442;11.936;2022-07-06T10:16:55;101118.69;;;26.24;35.14
54736;BME280;40632;51.442;11.936;2022-07-06T10:19:20;101128.69;;;25.94;35.69
54736;BME280;40632;51.442;11.936;2022-07-06T10:21:46;101117.81;;;25.87;36.31
54736;BME280;40632;51.442;11.936;2022-07-06T10:24:12;101123.66;;;24.93;37.86
54736;BME280;40632;51.442;11.936;2022-07-06T10:26:40;101119.97;;;25.62;36.91
54736;BME280;40632;51.442;11.936;2022-07-06T10:29:06;101119.50;;;27.11;35.81
54736;BME280;40632;51.442;11.936;2022-07-06T10:31:32;101099.00;;;28.42;33.58
54736;BME280;40632;51.442;11.936;2022-07-06T10:33:58;101090.47;;;29.38;32.02
54736;BME280;40632;51.442;11.936;2022-07-06T10:36:24;101101.34;;;29.05;32.46
54736;BME280;40632;51.442;11.936;2022-07-06T10:38:50;101103.97;;;27.42;33.43
54736;BME280;40632;51.442;11.936;2022-07-06T10:41:16;101110.78;;;27.09;34.22
54736;BME280;40632;51.442;11.936;2022-07-06T10:43:45;101105.31;;;26.53;35.80
54736;BME280;40632;51.442;11.936;2022-07-06T10:46:11;101116.69;;;26.12;35.80
54736;BME280;40632;51.442;11.936;2022-07-06T10:48:37;101107.72;;;26.04;35.77
54736;BME280;40632;51.442;11.936;2022-07-06T10:51:03;101098.84;;;26.47;35.56
54736;BME280;40632;51.442;11.936;2022-07-06T10:53:30;101097.84;;;26.70;34.75
54736;BME280;40632;51.442;11.936;2022-07-06T10:55:56;101102.22;;;26.71;35.24
54736;BME280;40632;51.442;11.936;2022-07-06T10:58:34;101106.50;;;27.43;34.78
54736;BME280;40632;51.442;11.936;2022-07-06T11:01:02;101101.63;;;27.60;34.13
54736;BME280;40632;51.442;11.936;2022-07-06T11:03:34;101100.03;;;27.79;34.38
54736;BME280;40632;51.442;11.936;2022-07-06T11:06:00;101096.97;;;26.91;34.81
54736;BME280;40632;51.442;11.936;2022-07-06T11:08:40;101095.94;;;27.48;34.57
54736;BME280;40632;51.442;11.936;2022-07-06T11:11:10;101096.78;;;27.20;34.29
54736;BME280;40632;51.442;11.936;2022-07-06T11:13:41;101094.28;;;27.19;34.37
54736;BME280;40632;51.442;11.936;2022-07-06T11:16:09;101085.88;;;26.79;35.40
54736;BME280;40632;51.442;11.936;2022-07-06T11:18:38;101090.50;;;27.83;33.53
54736;BME280;40632;51.442;11.936;2022-07-06T11:21:16;101074.22;;;28.05;33.45
54736;BME280;40632;51.442;11.936;2022-07-06T11:23:42;101077.16;;;27.68;33.48
54736;BME280;40632;51.442;11.936;2022-07-06T11:26:07;101089.09;;;27.46;33.41
54736;BME280;40632;51.442;11.936;2022-07-06T11:28:33;101090.44;;;26.14;34.72
54736;BME280;40632;51.442;11.936;2022-07-06T11:30:59;101083.00;;;26.80;34.48
54736;BME280;40632;51.442;11.936;2022-07-06T11:33:30;101079.91;;;27.82;33.53
54736;BME280;40632;51.442;11.936;2022-07-06T11:36:10;101076.75;;;27.71;33.09
54736;BME280;40632;51.442;11.936;2022-07-06T11:38:36;101077.22;;;29.03;32.04
54736;BME280;40632;51.442;11.936;2022-07-06T11:41:01;101081.94;;;28.21;32.10
54736;BME280;40632;51.442;11.936;2022-07-06T11:43:26;101081.06;;;28.07;32.48
54736;BME280;40632;51.442;11.936;2022-07-06T11:45:52;101077.81;;;27.77;32.68
54736;BME280;40632;51.442;11.936;2022-07-06T11:48:17;101079.41;;;27.58;32.42
54736;BME280;40632;51.442;11.936;2022-07-06T11:50:45;101071.97;;;27.73;32.66
54736;BME280;40632;51.442;11.936;2022-07-06T11:53:21;101082.16;;;27.71;32.08
54736;BME280;40632;51.442;11.936;2022-07-06T11:55:47;101063.28;;;29.00;30.93
54736;BME280;40632;51.442;11.936;2022-07-06T11:58:12;101061.78;;;28.17;31.75
54736;BME280;40632;51.442;11.936;2022-07-06T12:00:38;101059.31;;;28.42;31.13
54736;BME280;40632;51.442;11.936;2022-07-06T12:03:03;101053.69;;;29.11;30.51
54736;BME280;40632;51.442;11.936;2022-07-06T12:05:29;101055.59;;;28.63;30.65
54736;BME280;40632;51.442;11.936;2022-07-06T12:08:05;101062.97;;;28.08;31.99
54736;BME280;40632;51.442;11.936;2022-07-06T12:10:31;101073.75;;;26.90;32.53
54736;BME280;40632;51.442;11.936;2022-07-06T12:13:01;101074.78;;;26.89;32.79
54736;BME280;40632;51.442;11.936;2022-07-06T12:15:27;101068.63;;;27.58;31.98
54736;BME280;40632;51.442;11.936;2022-07-06T12:17:52;101072.25;;;27.85;31.64
54736;BME280;40632;51.442;11.936;2022-07-06T12:20:17;101061.72;;;27.97;31.58
54736;BME280;40632;51.442;11.936;2022-07-06T12:22:43;101054.09;;;28.14;31.35
54736;BME280;40632;51.442;11.936;2022-07-06T12:25:11;101065.13;;;27.77;31.50
54736;BME280;40632;51.442;11.936;2022-07-06T12:27:36;101055.09;;;29.40;29.90
54736;BME280;40632;51.442;11.936;2022-07-06T12:30:07;101041.59;;;29.33;29.79
54736;BME280;40632;51.442;11.936;2022-07-06T12:32:33;101053.28;;;28.40;31.34
54736;BME280;40632;51.442;11.936;2022-07-06T12:35:02;101044.56;;;28.98;30.05